createdAt,value
2019-01-05T00:00:56.345Z,13.63
2019-01-05T00:03:51.094Z,13.87
2019-01-05T00:06:40.255Z,11.90
2019-01-05T00:09:29.655Z,13.07
2019-01-05T00:12:18.889Z,12.50
2019-01-05T00:15:08.387Z,11.33
2019-01-05T00:20:40.634Z,11.17
2019-01-05T00:32:41.115Z,8.33
2019-01-05T00:35:26.966Z,8.73
2019-01-05T00:38:09.060Z,8.30
2019-01-05T00:52:46.984Z,8.30
2019-01-05T00:55:36.204Z,7.30
2019-01-05T00:58:25.776Z,6.63
2019-01-05T01:01:15.287Z,6.87
2019-01-05T01:04:04.527Z,7.47
2019-01-05T01:06:53.978Z,7.67
2019-01-05T01:09:43.104Z,7.57
2019-01-05T01:12:33.246Z,6.67
2019-01-05T01:15:22.663Z,6.73
2019-01-05T01:18:12.012Z,6.77
2019-01-05T01:21:01.171Z,5.80
2019-01-05T01:26:52.534Z,5.60
2019-01-05T01:29:41.841Z,5.33
2019-01-05T01:32:31.013Z,5.60
2019-01-05T01:35:20.201Z,5.20
2019-01-05T01:38:47.487Z,4.70
2019-01-05T01:41:57.782Z,4.30
2019-01-05T01:44:46.929Z,4.20
2019-01-05T02:02:48.916Z,3.97
2019-01-05T02:08:31.823Z,3.50
2019-01-05T02:17:37.774Z,3.47
2019-01-05T02:21:05.264Z,3.13
2019-01-05T02:24:32.438Z,3.30
2019-01-05T02:28:03.391Z,3.20
2019-01-05T02:31:30.781Z,2.90
2019-01-05T02:35:00.837Z,3.10
2019-01-05T02:38:29.757Z,3.07
2019-01-05T02:41:56.964Z,3.07
2019-01-05T02:45:24.478Z,3.27
2019-01-05T02:48:51.659Z,4.50
2019-01-05T02:52:15.796Z,3.33
2019-01-05T02:55:43.952Z,3.70
2019-01-05T02:59:11.443Z,4.13
2019-01-05T03:02:38.679Z,3.90
2019-01-05T03:06:06.285Z,3.90
2019-01-05T03:09:18.829Z,3.40
2019-01-05T03:12:46.408Z,3.90
2019-01-05T03:19:22.936Z,3.77
2019-01-05T03:22:50.194Z,3.77
2019-01-05T03:26:17.388Z,3.13
2019-01-05T03:29:44.571Z,2.83
2019-01-05T03:33:11.853Z,3.43
2019-01-05T03:36:39.127Z,2.70
2019-01-05T03:40:06.318Z,2.47
2019-01-05T03:43:33.047Z,2.90
2019-01-05T03:47:00.352Z,2.60
2019-01-05T03:50:27.538Z,2.70
2019-01-05T03:53:51.037Z,2.93
2019-01-05T03:57:07.459Z,2.93
2019-01-05T04:00:23.969Z,2.30
2019-01-05T04:03:40.211Z,2.33
2019-01-05T04:06:42.665Z,2.07
2019-01-05T04:10:09.880Z,2.07
2019-01-05T04:16:47.744Z,1.93
2019-01-05T04:26:36.960Z,2.00
2019-01-05T04:33:09.661Z,2.17
2019-01-05T04:36:36.804Z,1.93
2019-01-05T04:40:05.263Z,2.00
2019-01-05T04:43:32.431Z,1.90
2019-01-05T04:46:59.684Z,2.17
2019-01-05T04:50:26.946Z,1.90
2019-01-05T04:53:55.176Z,1.90
2019-01-05T04:57:22.522Z,2.20
2019-01-05T05:00:50.566Z,2.20
2019-01-05T05:04:18.135Z,1.80
2019-01-05T05:07:25.219Z,2.10
2019-01-05T05:11:02.662Z,2.20
2019-01-05T05:14:29.843Z,1.87
2019-01-05T05:17:57.135Z,2.37
2019-01-05T05:24:40.686Z,1.90
2019-01-05T05:28:07.898Z,1.70
2019-01-05T05:31:35.364Z,2.07
2019-01-05T05:35:02.561Z,1.60
2019-01-05T05:38:32.656Z,2.10
2019-01-05T05:45:09.972Z,1.70
2019-01-05T05:48:37.198Z,1.60
2019-01-05T05:55:31.823Z,1.80
2019-01-05T06:02:16.836Z,1.60
2019-01-05T06:05:47.089Z,1.40
2019-01-05T06:15:32.913Z,1.30
2019-01-05T06:18:55.284Z,1.47
2019-01-05T06:22:22.533Z,1.57
2019-01-05T06:25:49.798Z,1.40
2019-01-05T06:29:00.199Z,1.50
2019-01-05T06:32:28.571Z,1.40
2019-01-05T06:35:39.910Z,1.80
2019-01-05T06:38:43.494Z,1.80
2019-01-05T06:41:52.024Z,1.90
2019-01-05T06:45:19.252Z,1.47
2019-01-05T06:48:49.282Z,1.60
2019-01-05T06:52:16.444Z,1.60
2019-01-05T07:02:01.657Z,1.33
2019-01-05T07:05:30.439Z,1.40
2019-01-05T07:08:58.175Z,1.40
2019-01-05T07:12:25.441Z,1.70
2019-01-05T07:15:55.677Z,1.50
2019-01-05T07:19:05.992Z,1.70
2019-01-05T07:22:33.560Z,1.33
2019-01-05T07:26:00.747Z,2.00
2019-01-05T07:29:27.916Z,1.80
2019-01-05T07:32:55.148Z,1.70
2019-01-05T07:36:22.338Z,1.90
2019-01-05T07:39:49.540Z,2.53
2019-01-05T07:43:16.775Z,2.43
2019-01-05T07:50:08.367Z,2.53
2019-01-05T07:56:46.934Z,3.90
2019-01-05T08:00:14.077Z,3.17
2019-01-05T08:03:28.559Z,3.17
2019-01-05T08:06:55.764Z,3.10
2019-01-05T08:10:17.710Z,3.50
2019-01-05T08:13:45.080Z,3.80
2019-01-05T08:17:14.084Z,4.10
2019-01-05T08:20:41.292Z,3.97
2019-01-05T08:24:11.562Z,4.00
2019-01-05T08:27:38.830Z,5.20
2019-01-05T08:37:28.180Z,5.20
2019-01-05T08:40:55.365Z,4.97
2019-01-05T08:44:22.804Z,5.17
2019-01-05T08:47:49.966Z,4.77
2019-01-05T08:57:38.153Z,4.77
2019-01-05T09:01:05.583Z,4.27
2019-01-05T09:04:32.778Z,4.30
2019-01-05T09:08:00.231Z,3.80
2019-01-05T09:11:01.247Z,3.60
2019-01-05T09:14:02.438Z,3.50
2019-01-05T09:17:29.643Z,3.33
2019-01-05T09:20:49.220Z,3.00
2019-01-05T09:24:16.426Z,3.83
2019-01-05T09:27:43.761Z,3.33
2019-01-05T09:34:22.268Z,3.10
2019-01-05T09:37:49.424Z,2.90
2019-01-05T09:44:24.981Z,3.23
2019-01-05T09:47:50.018Z,2.53
2019-01-05T09:51:17.986Z,3.00
2019-01-05T09:54:45.951Z,3.40
2019-01-05T09:58:13.385Z,2.50
2019-01-05T10:04:47.657Z,2.70
2019-01-05T10:08:14.853Z,2.60
2019-01-05T10:11:17.435Z,2.47
2019-01-05T10:14:44.598Z,2.30
2019-01-05T10:24:46.531Z,2.90
2019-01-05T10:28:13.981Z,2.10
2019-01-05T10:31:38.633Z,2.40
2019-01-05T10:38:14.011Z,2.40
2019-01-05T10:41:32.823Z,4.00
2019-01-05T10:45:01.310Z,2.87
2019-01-05T10:52:05.615Z,3.40
2019-01-05T10:58:56.946Z,3.63
2019-01-05T11:02:29.696Z,3.60
2019-01-05T11:05:56.906Z,3.30
2019-01-05T11:09:24.319Z,3.03
2019-01-05T11:12:51.673Z,3.50
2019-01-05T11:16:18.862Z,3.23
2019-01-05T11:19:46.389Z,3.67
2019-01-05T11:23:13.676Z,3.47
2019-01-05T11:26:32.922Z,3.70
2019-01-05T11:30:00.103Z,3.87
2019-01-05T11:33:27.475Z,4.33
2019-01-05T11:36:54.618Z,4.47
2019-01-05T11:40:21.820Z,4.50
2019-01-05T11:43:43.862Z,5.00
2019-01-05T11:46:51.054Z,4.77
2019-01-05T11:56:56.427Z,3.90
2019-01-05T12:00:23.604Z,3.90
2019-01-05T12:03:50.869Z,3.97
2019-01-05T12:07:18.088Z,3.83
2019-01-05T12:10:45.298Z,3.70
2019-01-05T12:13:46.443Z,4.27
2019-01-05T12:17:13.598Z,4.63
2019-01-05T12:20:30.616Z,4.27
2019-01-05T12:23:57.815Z,4.20
2019-01-05T12:27:27.765Z,4.70
2019-01-05T12:30:44.657Z,4.37
2019-01-05T12:34:10.587Z,5.17
2019-01-05T12:37:37.812Z,5.37
2019-01-05T12:41:05.100Z,4.60
2019-01-05T12:44:32.266Z,4.33
2019-01-05T12:48:02.453Z,4.87
2019-01-05T12:51:27.340Z,4.00
2019-01-05T12:54:54.498Z,4.40
2019-01-05T13:01:45.154Z,4.30
2019-01-05T13:05:12.447Z,3.80
2019-01-05T13:08:39.624Z,4.20
2019-01-05T13:17:55.069Z,4.20
2019-01-05T13:21:22.602Z,4.27
2019-01-05T13:24:45.311Z,3.90
2019-01-05T13:28:13.230Z,4.63
2019-01-05T13:31:40.454Z,3.77
2019-01-05T13:38:21.311Z,4.83
2019-01-05T13:41:48.777Z,3.70
2019-01-05T13:45:15.940Z,3.97
2019-01-05T13:48:43.844Z,3.83
2019-01-05T13:52:14.217Z,3.73
2019-01-05T13:55:06.328Z,3.90
2019-01-05T13:57:56.611Z,4.53
2019-01-05T14:00:45.718Z,3.33
2019-01-05T14:03:34.927Z,3.93
2019-01-05T14:06:24.424Z,4.53
2019-01-05T14:09:13.736Z,4.70
2019-01-05T14:12:02.855Z,4.33
2019-01-05T14:15:09.392Z,3.97
2019-01-05T14:18:10.639Z,3.73
2019-01-05T14:20:59.788Z,4.40
2019-01-05T14:23:48.897Z,4.00
2019-01-05T14:29:40.608Z,3.50
2019-01-05T14:32:29.952Z,3.60
2019-01-05T14:35:19.082Z,4.20
2019-01-05T14:38:08.655Z,3.67
2019-01-05T14:40:57.950Z,4.67
2019-01-05T14:43:47.149Z,3.83
2019-01-05T14:46:36.332Z,4.30
2019-01-05T14:49:25.523Z,4.30
2019-01-05T14:52:14.747Z,3.90
2019-01-05T14:55:03.859Z,4.07
2019-01-05T14:57:54.014Z,3.70
2019-01-05T15:00:43.178Z,4.00
2019-01-05T15:03:32.559Z,3.60
2019-01-05T15:06:21.698Z,4.33
2019-01-05T15:09:12.509Z,3.37
2019-01-05T15:12:01.997Z,3.80
2019-01-05T15:14:51.171Z,3.80
2019-01-05T15:17:32.419Z,4.00
2019-01-05T15:23:38.043Z,3.13
2019-01-05T15:26:27.347Z,3.20
2019-01-05T15:29:16.490Z,3.60
2019-01-05T15:32:05.621Z,3.10
2019-01-05T15:34:54.740Z,3.07
2019-01-05T15:37:44.077Z,3.60
2019-01-05T15:40:33.300Z,3.50
2019-01-05T15:43:22.490Z,3.00
2019-01-05T15:46:11.882Z,3.73
2019-01-05T15:49:01.092Z,4.20
2019-01-05T15:51:50.551Z,3.47
2019-01-05T15:54:39.759Z,3.73
2019-01-05T15:57:28.924Z,3.80
2019-01-05T16:00:18.121Z,4.07
2019-01-05T16:03:07.254Z,4.70
2019-01-05T16:05:56.450Z,3.97
2019-01-05T16:08:45.583Z,4.40
2019-01-05T16:11:36.403Z,4.87
2019-01-05T16:14:25.571Z,3.90
2019-01-05T16:17:14.700Z,4.20
2019-01-05T16:26:06.610Z,4.20
2019-01-05T16:28:55.766Z,5.30
2019-01-05T16:31:44.941Z,4.93
2019-01-05T16:34:34.312Z,5.20
2019-01-05T16:37:23.503Z,5.10
2019-01-05T16:40:12.662Z,4.37
2019-01-05T16:43:01.806Z,3.97
2019-01-05T16:45:50.941Z,3.73
2019-01-05T16:48:40.122Z,4.00
2019-01-05T16:51:29.279Z,3.97
2019-01-05T16:54:18.442Z,3.60
2019-01-05T16:57:23.237Z,3.90
2019-01-05T17:00:13.028Z,3.80
2019-01-05T17:03:02.243Z,5.10
2019-01-05T17:05:51.368Z,4.50
2019-01-05T17:08:40.551Z,5.03
2019-01-05T17:11:29.690Z,5.07
2019-01-05T17:14:18.990Z,6.60
2019-01-05T17:17:11.037Z,3.50
2019-01-05T17:20:00.173Z,2.40
2019-01-05T17:22:41.651Z,2.50
2019-01-05T17:25:51.372Z,2.30
2019-01-05T17:28:40.816Z,2.83
2019-01-05T17:31:31.201Z,2.80
2019-01-05T17:34:21.075Z,3.10
2019-01-05T17:40:51.884Z,2.80
2019-01-05T17:46:46.174Z,2.80
2019-01-05T17:49:35.353Z,2.50
2019-01-05T17:52:24.848Z,2.23
2019-01-05T17:55:27.850Z,2.27
2019-01-05T17:58:17.035Z,2.90
2019-01-05T18:04:04.289Z,3.27
2019-01-05T18:06:54.988Z,4.53
2019-01-05T18:09:44.200Z,4.10
2019-01-05T18:12:33.795Z,3.57
2019-01-05T18:18:06.539Z,3.80
2019-01-05T18:20:55.758Z,4.03
2019-01-05T18:23:39.125Z,4.43
2019-01-05T18:26:33.711Z,3.97
2019-01-05T18:29:22.963Z,4.60
2019-01-05T18:32:12.534Z,4.53
2019-01-05T18:35:01.724Z,4.70
2019-01-05T18:37:51.259Z,4.67
2019-01-05T18:40:38.333Z,5.40
2019-01-05T18:43:27.915Z,4.97
2019-01-05T18:46:17.086Z,4.70
2019-01-05T18:49:06.568Z,4.87
2019-01-05T18:51:55.682Z,6.20
2019-01-05T18:54:56.638Z,4.77
2019-01-05T18:57:46.189Z,5.17
2019-01-05T19:00:35.388Z,4.80
2019-01-05T19:03:24.547Z,5.10
2019-01-05T19:06:14.051Z,5.47
2019-01-05T19:09:03.202Z,5.30
2019-01-05T19:11:52.514Z,5.50
2019-01-05T19:14:41.736Z,5.87
2019-01-05T19:17:30.882Z,5.63
2019-01-05T19:20:09.098Z,6.37
2019-01-05T19:22:58.345Z,5.37
2019-01-05T19:25:59.189Z,4.87
2019-01-05T19:29:00.346Z,5.47
2019-01-05T19:31:44.794Z,6.13
2019-01-05T19:34:33.968Z,5.00
2019-01-05T19:37:23.110Z,4.40
2019-01-05T19:40:12.526Z,3.63
2019-01-05T19:43:01.676Z,3.90
2019-01-05T19:45:50.791Z,3.57
2019-01-05T19:48:39.907Z,3.57
2019-01-05T19:51:29.132Z,3.97
2019-01-05T19:54:18.355Z,4.17
2019-01-05T19:57:07.476Z,5.37
2019-01-05T19:59:56.805Z,4.97
2019-01-05T20:02:41.814Z,4.57
2019-01-05T20:05:31.008Z,3.37
2019-01-05T20:08:20.152Z,3.23
2019-01-05T20:11:09.355Z,3.23
2019-01-05T20:13:58.522Z,2.97
2019-01-05T20:16:47.642Z,2.57
2019-01-05T20:19:36.862Z,2.57
2019-01-05T20:22:26.021Z,2.67
2019-01-05T20:25:15.288Z,2.60
2019-01-05T20:28:04.490Z,3.20
2019-01-05T20:30:53.748Z,2.40
2019-01-05T20:33:42.896Z,2.60
2019-01-05T20:36:32.097Z,2.70
2019-01-05T20:39:21.274Z,2.37
2019-01-05T20:42:10.355Z,2.30
2019-01-05T20:47:56.684Z,2.80
2019-01-05T20:50:45.967Z,2.40
2019-01-05T20:53:35.100Z,2.80
2019-01-05T20:56:24.621Z,2.60
2019-01-05T20:59:13.744Z,3.33
2019-01-05T21:02:02.939Z,3.30
2019-01-05T21:04:52.061Z,2.20
2019-01-05T21:07:41.265Z,2.53
2019-01-05T21:10:30.653Z,1.83
2019-01-05T21:13:19.906Z,2.50
2019-01-05T21:16:09.068Z,2.27
2019-01-05T21:18:59.386Z,1.90
2019-01-05T21:21:49.341Z,2.40
2019-01-05T21:24:38.571Z,2.07
2019-01-05T21:27:41.028Z,3.00
2019-01-05T21:30:30.456Z,2.33
2019-01-05T21:33:25.774Z,2.83
2019-01-05T21:38:57.759Z,2.70
2019-01-05T21:41:39.831Z,2.80
2019-01-05T21:44:29.000Z,3.07
2019-01-05T21:47:18.204Z,3.00
2019-01-05T21:50:07.397Z,3.00
2019-01-05T21:52:56.584Z,3.37
2019-01-05T21:55:45.800Z,3.70
2019-01-05T21:58:35.527Z,3.63
2019-01-05T22:01:24.873Z,2.70
2019-01-05T22:04:13.949Z,2.73
2019-01-05T22:06:59.436Z,2.60
2019-01-05T22:09:48.617Z,2.97
2019-01-05T22:12:37.764Z,2.80
2019-01-05T22:15:26.913Z,2.60
2019-01-05T22:18:16.140Z,2.90
2019-01-05T22:23:47.652Z,2.70
2019-01-05T22:26:36.806Z,2.80
2019-01-05T22:29:26.173Z,2.53
2019-01-05T22:32:15.374Z,2.50
2019-01-05T22:35:12.560Z,3.00
2019-01-05T22:38:01.671Z,2.47
2019-01-05T22:40:50.842Z,3.20
2019-01-05T22:43:40.017Z,2.33
2019-01-05T22:46:30.815Z,2.53
2019-01-05T22:49:20.381Z,2.73
2019-01-05T22:52:01.286Z,2.33
2019-01-05T22:54:50.506Z,2.83
2019-01-05T22:57:39.676Z,2.90
2019-01-05T23:00:29.857Z,2.80
2019-01-05T23:06:01.116Z,2.90
2019-01-05T23:11:32.637Z,2.83
2019-01-05T23:14:22.193Z,2.97
2019-01-05T23:17:11.577Z,3.90
2019-01-05T23:20:00.703Z,3.07
2019-01-05T23:22:49.873Z,2.97
2019-01-05T23:25:39.008Z,3.30
2019-01-05T23:28:28.193Z,3.13
2019-01-05T23:31:17.428Z,3.50
2019-01-05T23:34:06.743Z,4.27
2019-01-05T23:39:48.190Z,4.70
2019-01-05T23:42:37.592Z,4.10
2019-01-05T23:45:26.752Z,4.93
2019-01-05T23:48:15.872Z,5.40
2019-01-05T23:51:05.142Z,5.10
2019-01-05T23:53:54.376Z,5.57
2019-01-05T23:56:43.542Z,5.93
2019-01-05T23:59:32.705Z,6.07
